sensor_id;sensor_type;location;lat;lon;timestamp;P1;durP1;ratioP1;P2;durP2;ratioP2
54835;SDS011;43486;43.574;1.476;2023-04-26T00:01:12;3.88;;;2.28;;
54835;SDS011;43486;43.574;1.476;2023-04-26T00:03:38;7.00;;;2.75;;
54835;SDS011;43486;43.574;1.476;2023-04-26T00:06:04;4.97;;;2.10;;
54835;SDS011;43486;43.574;1.476;2023-04-26T00:08:32;6.25;;;2.67;;
54835;SDS011;43486;43.574;1.476;2023-04-26T00:10:58;7.53;;;3.13;;
54835;SDS011;43486;43.574;1.476;2023-04-26T00:13:24;6.43;;;3.22;;
54835;SDS011;43486;43.574;1.476;2023-04-26T00:15:49;5.60;;;2.58;;
54835;SDS011;43486;43.574;1.476;2023-04-26T00:18:15;3.33;;;1.90;;
54835;SDS011;43486;43.574;1.476;2023-04-26T00:20:41;5.82;;;3.10;;
54835;SDS011;43486;43.574;1.476;2023-04-26T00:23:07;4.95;;;2.53;;
54835;SDS011;43486;43.574;1.476;2023-04-26T00:25:34;5.43;;;2.10;;
54835;SDS011;43486;43.574;1.476;2023-04-26T00:28:00;7.13;;;2.70;;
54835;SDS011;43486;43.574;1.476;2023-04-26T00:30:25;6.40;;;2.83;;
54835;SDS011;43486;43.574;1.476;2023-04-26T00:32:51;4.72;;;1.92;;
54835;SDS011;43486;43.574;1.476;2023-04-26T00:35:17;5.00;;;2.67;;
54835;SDS011;43486;43.574;1.476;2023-04-26T00:37:42;4.53;;;2.53;;
54835;SDS011;43486;43.574;1.476;2023-04-26T00:40:08;6.25;;;2.42;;
54835;SDS011;43486;43.574;1.476;2023-04-26T00:42:34;5.97;;;2.30;;
54835;SDS011;43486;43.574;1.476;2023-04-26T00:45:00;4.30;;;1.90;;
54835;SDS011;43486;43.574;1.476;2023-04-26T00:47:25;5.15;;;2.97;;
54835;SDS011;43486;43.574;1.476;2023-04-26T00:49:51;7.82;;;2.45;;
54835;SDS011;43486;43.574;1.476;2023-04-26T00:52:17;6.60;;;2.20;;
54835;SDS011;43486;43.574;1.476;2023-04-26T00:54:42;5.35;;;2.22;;
54835;SDS011;43486;43.574;1.476;2023-04-26T00:57:07;6.28;;;2.35;;
54835;SDS011;43486;43.574;1.476;2023-04-26T00:59:34;14.15;;;2.55;;
54835;SDS011;43486;43.574;1.476;2023-04-26T01:02:01;6.53;;;2.30;;
54835;SDS011;43486;43.574;1.476;2023-04-26T01:04:27;4.65;;;2.50;;
54835;SDS011;43486;43.574;1.476;2023-04-26T01:06:54;5.68;;;2.92;;
54835;SDS011;43486;43.574;1.476;2023-04-26T01:09:20;5.30;;;2.72;;
54835;SDS011;43486;43.574;1.476;2023-04-26T01:11:46;5.57;;;2.70;;
54835;SDS011;43486;43.574;1.476;2023-04-26T01:14:11;4.03;;;1.98;;
54835;SDS011;43486;43.574;1.476;2023-04-26T01:16:38;4.32;;;2.53;;
54835;SDS011;43486;43.574;1.476;2023-04-26T01:19:11;5.93;;;2.33;;
54835;SDS011;43486;43.574;1.476;2023-04-26T01:21:37;4.65;;;2.20;;
54835;SDS011;43486;43.574;1.476;2023-04-26T01:24:03;4.57;;;2.70;;
54835;SDS011;43486;43.574;1.476;2023-04-26T01:26:30;4.80;;;2.03;;
54835;SDS011;43486;43.574;1.476;2023-04-26T01:28:56;3.00;;;2.05;;
54835;SDS011;43486;43.574;1.476;2023-04-26T01:31:22;6.13;;;3.33;;
54835;SDS011;43486;43.574;1.476;2023-04-26T01:33:47;4.13;;;2.00;;
54835;SDS011;43486;43.574;1.476;2023-04-26T01:36:12;3.63;;;2.15;;
54835;SDS011;43486;43.574;1.476;2023-04-26T01:38:38;4.75;;;2.00;;
54835;SDS011;43486;43.574;1.476;2023-04-26T01:41:03;4.75;;;1.80;;
54835;SDS011;43486;43.574;1.476;2023-04-26T01:43:29;4.95;;;2.33;;
54835;SDS011;43486;43.574;1.476;2023-04-26T01:45:54;5.15;;;2.60;;
54835;SDS011;43486;43.574;1.476;2023-04-26T01:48:20;5.72;;;2.80;;
54835;SDS011;43486;43.574;1.476;2023-04-26T01:50:45;4.68;;;2.28;;
54835;SDS011;43486;43.574;1.476;2023-04-26T01:53:11;5.95;;;2.50;;
54835;SDS011;43486;43.574;1.476;2023-04-26T01:55:36;4.72;;;2.63;;
54835;SDS011;43486;43.574;1.476;2023-04-26T01:58:02;4.13;;;1.88;;
54835;SDS011;43486;43.574;1.476;2023-04-26T02:00:28;6.15;;;2.00;;
54835;SDS011;43486;43.574;1.476;2023-04-26T02:02:53;5.43;;;2.30;;
54835;SDS011;43486;43.574;1.476;2023-04-26T02:05:20;3.15;;;1.50;;
54835;SDS011;43486;43.574;1.476;2023-04-26T02:07:46;5.57;;;2.03;;
54835;SDS011;43486;43.574;1.476;2023-04-26T02:10:11;4.18;;;2.05;;
54835;SDS011;43486;43.574;1.476;2023-04-26T02:12:37;5.60;;;2.40;;
54835;SDS011;43486;43.574;1.476;2023-04-26T02:15:02;5.75;;;2.63;;
54835;SDS011;43486;43.574;1.476;2023-04-26T02:17:28;5.03;;;2.80;;
54835;SDS011;43486;43.574;1.476;2023-04-26T02:19:54;9.55;;;2.33;;
54835;SDS011;43486;43.574;1.476;2023-04-26T02:22:20;4.95;;;2.40;;
54835;SDS011;43486;43.574;1.476;2023-04-26T02:24:49;3.72;;;1.88;;
54835;SDS011;43486;43.574;1.476;2023-04-26T02:27:14;4.20;;;2.13;;
54835;SDS011;43486;43.574;1.476;2023-04-26T02:29:40;4.78;;;2.20;;
54835;SDS011;43486;43.574;1.476;2023-04-26T02:32:05;5.20;;;2.53;;
54835;SDS011;43486;43.574;1.476;2023-04-26T02:34:31;5.20;;;2.60;;
54835;SDS011;43486;43.574;1.476;2023-04-26T02:36:57;4.72;;;2.25;;
54835;SDS011;43486;43.574;1.476;2023-04-26T02:39:22;4.88;;;2.63;;
54835;SDS011;43486;43.574;1.476;2023-04-26T02:41:48;4.25;;;2.42;;
54835;SDS011;43486;43.574;1.476;2023-04-26T02:44:13;4.95;;;2.40;;
54835;SDS011;43486;43.574;1.476;2023-04-26T02:46:39;4.82;;;2.42;;
54835;SDS011;43486;43.574;1.476;2023-04-26T02:49:04;4.25;;;1.90;;
54835;SDS011;43486;43.574;1.476;2023-04-26T02:51:30;6.25;;;2.83;;
54835;SDS011;43486;43.574;1.476;2023-04-26T02:53:57;4.82;;;2.17;;
54835;SDS011;43486;43.574;1.476;2023-04-26T02:56:23;3.55;;;1.98;;
54835;SDS011;43486;43.574;1.476;2023-04-26T02:58:48;5.13;;;2.70;;
54835;SDS011;43486;43.574;1.476;2023-04-26T03:01:13;3.33;;;1.95;;
54835;SDS011;43486;43.574;1.476;2023-04-26T03:03:39;4.68;;;1.90;;
54835;SDS011;43486;43.574;1.476;2023-04-26T03:06:04;5.57;;;1.83;;
54835;SDS011;43486;43.574;1.476;2023-04-26T03:08:30;5.63;;;1.75;;
54835;SDS011;43486;43.574;1.476;2023-04-26T03:10:56;4.20;;;2.08;;
54835;SDS011;43486;43.574;1.476;2023-04-26T03:13:21;4.75;;;2.08;;
54835;SDS011;43486;43.574;1.476;2023-04-26T03:15:47;4.72;;;1.85;;
54835;SDS011;43486;43.574;1.476;2023-04-26T03:18:14;4.47;;;2.33;;
54835;SDS011;43486;43.574;1.476;2023-04-26T03:20:40;5.65;;;2.25;;
54835;SDS011;43486;43.574;1.476;2023-04-26T03:23:05;3.28;;;2.00;;
54835;SDS011;43486;43.574;1.476;2023-04-26T03:25:32;4.53;;;2.20;;
54835;SDS011;43486;43.574;1.476;2023-04-26T03:27:57;7.88;;;2.15;;
54835;SDS011;43486;43.574;1.476;2023-04-26T03:30:23;3.30;;;1.65;;
54835;SDS011;43486;43.574;1.476;2023-04-26T03:32:48;4.82;;;2.30;;
54835;SDS011;43486;43.574;1.476;2023-04-26T03:35:14;5.50;;;2.25;;
54835;SDS011;43486;43.574;1.476;2023-04-26T03:37:39;3.95;;;1.70;;
54835;SDS011;43486;43.574;1.476;2023-04-26T03:40:06;6.15;;;2.33;;
54835;SDS011;43486;43.574;1.476;2023-04-26T03:42:32;3.78;;;2.03;;
54835;SDS011;43486;43.574;1.476;2023-04-26T03:44:58;3.95;;;2.20;;
54835;SDS011;43486;43.574;1.476;2023-04-26T03:47:23;4.97;;;2.42;;
54835;SDS011;43486;43.574;1.476;2023-04-26T03:49:49;5.07;;;2.10;;
54835;SDS011;43486;43.574;1.476;2023-04-26T03:52:14;3.80;;;2.03;;
54835;SDS011;43486;43.574;1.476;2023-04-26T03:54:40;5.68;;;1.92;;
54835;SDS011;43486;43.574;1.476;2023-04-26T03:57:05;4.15;;;2.00;;
54835;SDS011;43486;43.574;1.476;2023-04-26T03:59:31;3.05;;;1.77;;
54835;SDS011;43486;43.574;1.476;2023-04-26T04:01:56;7.25;;;1.98;;
54835;SDS011;43486;43.574;1.476;2023-04-26T04:04:22;4.50;;;2.22;;
54835;SDS011;43486;43.574;1.476;2023-04-26T04:06:47;5.40;;;1.60;;
54835;SDS011;43486;43.574;1.476;2023-04-26T04:09:13;5.55;;;2.38;;
54835;SDS011;43486;43.574;1.476;2023-04-26T04:11:38;3.95;;;2.17;;
54835;SDS011;43486;43.574;1.476;2023-04-26T04:14:03;4.68;;;1.60;;
54835;SDS011;43486;43.574;1.476;2023-04-26T04:16:29;2.22;;;1.60;;
54835;SDS011;43486;43.574;1.476;2023-04-26T04:18:55;3.90;;;1.95;;
54835;SDS011;43486;43.574;1.476;2023-04-26T04:21:20;4.57;;;1.85;;
54835;SDS011;43486;43.574;1.476;2023-04-26T04:23:45;4.32;;;2.13;;
54835;SDS011;43486;43.574;1.476;2023-04-26T04:26:11;4.05;;;1.85;;
54835;SDS011;43486;43.574;1.476;2023-04-26T04:28:38;3.60;;;1.80;;
54835;SDS011;43486;43.574;1.476;2023-04-26T04:31:05;4.60;;;1.90;;
54835;SDS011;43486;43.574;1.476;2023-04-26T04:33:33;2.35;;;1.50;;
54835;SDS011;43486;43.574;1.476;2023-04-26T04:35:59;2.63;;;1.58;;
54835;SDS011;43486;43.574;1.476;2023-04-26T04:38:24;2.92;;;1.80;;
54835;SDS011;43486;43.574;1.476;2023-04-26T04:40:50;2.92;;;1.83;;
54835;SDS011;43486;43.574;1.476;2023-04-26T04:43:16;3.67;;;2.17;;
54835;SDS011;43486;43.574;1.476;2023-04-26T04:45:42;2.28;;;1.40;;
54835;SDS011;43486;43.574;1.476;2023-04-26T04:48:07;2.30;;;1.45;;
54835;SDS011;43486;43.574;1.476;2023-04-26T04:50:35;3.78;;;1.85;;
54835;SDS011;43486;43.574;1.476;2023-04-26T04:53:02;2.55;;;1.33;;
54835;SDS011;43486;43.574;1.476;2023-04-26T04:55:28;4.22;;;1.63;;
54835;SDS011;43486;43.574;1.476;2023-04-26T04:57:53;2.00;;;1.13;;
54835;SDS011;43486;43.574;1.476;2023-04-26T05:00:19;3.53;;;1.85;;
54835;SDS011;43486;43.574;1.476;2023-04-26T05:02:45;5.90;;;2.00;;
54835;SDS011;43486;43.574;1.476;2023-04-26T05:05:10;3.90;;;1.88;;
54835;SDS011;43486;43.574;1.476;2023-04-26T05:07:36;3.00;;;1.73;;
54835;SDS011;43486;43.574;1.476;2023-04-26T05:10:02;2.65;;;1.60;;
54835;SDS011;43486;43.574;1.476;2023-04-26T05:12:27;4.40;;;2.03;;
54835;SDS011;43486;43.574;1.476;2023-04-26T05:14:53;2.45;;;1.73;;
54835;SDS011;43486;43.574;1.476;2023-04-26T05:17:18;5.45;;;2.08;;
54835;SDS011;43486;43.574;1.476;2023-04-26T05:19:44;3.67;;;1.90;;
54835;SDS011;43486;43.574;1.476;2023-04-26T05:22:09;4.28;;;2.03;;
54835;SDS011;43486;43.574;1.476;2023-04-26T05:24:35;3.67;;;1.90;;
54835;SDS011;43486;43.574;1.476;2023-04-26T05:27:01;2.38;;;1.67;;
54835;SDS011;43486;43.574;1.476;2023-04-26T05:29:28;3.90;;;1.92;;
54835;SDS011;43486;43.574;1.476;2023-04-26T05:31:54;3.63;;;1.83;;
54835;SDS011;43486;43.574;1.476;2023-04-26T05:34:20;5.18;;;1.98;;
54835;SDS011;43486;43.574;1.476;2023-04-26T05:36:46;3.10;;;1.88;;
54835;SDS011;43486;43.574;1.476;2023-04-26T05:39:12;3.72;;;2.08;;
54835;SDS011;43486;43.574;1.476;2023-04-26T05:41:37;2.53;;;1.92;;
54835;SDS011;43486;43.574;1.476;2023-04-26T05:44:02;3.22;;;1.67;;
54835;SDS011;43486;43.574;1.476;2023-04-26T05:46:28;4.57;;;1.95;;
54835;SDS011;43486;43.574;1.476;2023-04-26T05:48:53;3.15;;;1.63;;
54835;SDS011;43486;43.574;1.476;2023-04-26T05:51:19;3.83;;;1.70;;
54835;SDS011;43486;43.574;1.476;2023-04-26T05:53:45;3.10;;;1.58;;
54835;SDS011;43486;43.574;1.476;2023-04-26T05:56:10;2.63;;;1.75;;
54835;SDS011;43486;43.574;1.476;2023-04-26T05:58:35;3.05;;;1.73;;
54835;SDS011;43486;43.574;1.476;2023-04-26T06:01:01;4.15;;;1.98;;
54835;SDS011;43486;43.574;1.476;2023-04-26T06:03:26;3.97;;;2.05;;
54835;SDS011;43486;43.574;1.476;2023-04-26T06:05:52;3.97;;;1.77;;
54835;SDS011;43486;43.574;1.476;2023-04-26T06:08:17;3.30;;;2.00;;
54835;SDS011;43486;43.574;1.476;2023-04-26T06:10:42;3.97;;;1.58;;
54835;SDS011;43486;43.574;1.476;2023-04-26T06:13:08;2.42;;;1.40;;
54835;SDS011;43486;43.574;1.476;2023-04-26T06:15:33;1.85;;;1.25;;
54835;SDS011;43486;43.574;1.476;2023-04-26T06:17:59;3.92;;;1.98;;
54835;SDS011;43486;43.574;1.476;2023-04-26T06:20:24;3.60;;;1.77;;
54835;SDS011;43486;43.574;1.476;2023-04-26T06:22:50;4.70;;;2.00;;
54835;SDS011;43486;43.574;1.476;2023-04-26T06:25:15;3.10;;;1.55;;
54835;SDS011;43486;43.574;1.476;2023-04-26T06:27:41;3.40;;;1.60;;
54835;SDS011;43486;43.574;1.476;2023-04-26T06:30:06;2.65;;;1.55;;
54835;SDS011;43486;43.574;1.476;2023-04-26T06:32:32;3.78;;;1.88;;
54835;SDS011;43486;43.574;1.476;2023-04-26T06:34:58;3.25;;;1.70;;
54835;SDS011;43486;43.574;1.476;2023-04-26T06:37:23;2.25;;;1.50;;
54835;SDS011;43486;43.574;1.476;2023-04-26T06:39:48;8.52;;;2.83;;
54835;SDS011;43486;43.574;1.476;2023-04-26T06:42:14;3.50;;;1.73;;
54835;SDS011;43486;43.574;1.476;2023-04-26T06:44:39;4.50;;;1.95;;
54835;SDS011;43486;43.574;1.476;2023-04-26T06:47:05;4.38;;;2.10;;
54835;SDS011;43486;43.574;1.476;2023-04-26T06:49:33;3.35;;;1.50;;
54835;SDS011;43486;43.574;1.476;2023-04-26T06:51:59;3.05;;;1.73;;
54835;SDS011;43486;43.574;1.476;2023-04-26T06:54:27;3.67;;;1.90;;
54835;SDS011;43486;43.574;1.476;2023-04-26T06:56:54;2.90;;;1.70;;
54835;SDS011;43486;43.574;1.476;2023-04-26T06:59:19;8.27;;;1.90;;
54835;SDS011;43486;43.574;1.476;2023-04-26T07:01:44;7.20;;;2.25;;
54835;SDS011;43486;43.574;1.476;2023-04-26T07:04:10;3.03;;;1.48;;
54835;SDS011;43486;43.574;1.476;2023-04-26T07:06:36;3.10;;;1.38;;
54835;SDS011;43486;43.574;1.476;2023-04-26T07:09:02;2.75;;;1.65;;
54835;SDS011;43486;43.574;1.476;2023-04-26T07:11:28;7.57;;;2.17;;
54835;SDS011;43486;43.574;1.476;2023-04-26T07:13:54;2.05;;;1.42;;
54835;SDS011;43486;43.574;1.476;2023-04-26T07:16:19;3.25;;;1.75;;
54835;SDS011;43486;43.574;1.476;2023-04-26T07:18:45;4.25;;;2.05;;
54835;SDS011;43486;43.574;1.476;2023-04-26T07:21:12;3.28;;;1.60;;
54835;SDS011;43486;43.574;1.476;2023-04-26T07:23:37;3.80;;;1.65;;
54835;SDS011;43486;43.574;1.476;2023-04-26T07:26:03;4.40;;;2.08;;
54835;SDS011;43486;43.574;1.476;2023-04-26T07:28:32;3.80;;;1.83;;
54835;SDS011;43486;43.574;1.476;2023-04-26T07:30:58;3.38;;;1.98;;
54835;SDS011;43486;43.574;1.476;2023-04-26T07:33:25;4.55;;;1.92;;
54835;SDS011;43486;43.574;1.476;2023-04-26T07:35:54;3.58;;;1.70;;
54835;SDS011;43486;43.574;1.476;2023-04-26T07:38:24;3.13;;;1.65;;
54835;SDS011;43486;43.574;1.476;2023-04-26T07:40:49;3.67;;;1.65;;
54835;SDS011;43486;43.574;1.476;2023-04-26T07:43:15;2.10;;;1.40;;
54835;SDS011;43486;43.574;1.476;2023-04-26T07:45:41;3.47;;;1.50;;
54835;SDS011;43486;43.574;1.476;2023-04-26T07:48:07;2.58;;;1.65;;
54835;SDS011;43486;43.574;1.476;2023-04-26T07:50:32;4.25;;;2.15;;
54835;SDS011;43486;43.574;1.476;2023-04-26T07:52:57;4.57;;;1.95;;
54835;SDS011;43486;43.574;1.476;2023-04-26T07:55:23;6.55;;;2.20;;
54835;SDS011;43486;43.574;1.476;2023-04-26T07:57:48;3.83;;;1.92;;
54835;SDS011;43486;43.574;1.476;2023-04-26T08:00:14;4.45;;;2.70;;
54835;SDS011;43486;43.574;1.476;2023-04-26T08:02:43;5.65;;;1.60;;
54835;SDS011;43486;43.574;1.476;2023-04-26T08:05:10;2.47;;;1.45;;
54835;SDS011;43486;43.574;1.476;2023-04-26T08:07:36;1.55;;;1.10;;
54835;SDS011;43486;43.574;1.476;2023-04-26T08:10:01;3.70;;;2.33;;
54835;SDS011;43486;43.574;1.476;2023-04-26T08:12:27;4.10;;;1.70;;
54835;SDS011;43486;43.574;1.476;2023-04-26T08:14:52;2.55;;;1.77;;
54835;SDS011;43486;43.574;1.476;2023-04-26T08:17:18;4.88;;;1.50;;
54835;SDS011;43486;43.574;1.476;2023-04-26T08:19:43;2.55;;;1.38;;
54835;SDS011;43486;43.574;1.476;2023-04-26T08:22:08;5.45;;;1.70;;
54835;SDS011;43486;43.574;1.476;2023-04-26T08:24:34;2.35;;;1.23;;
54835;SDS011;43486;43.574;1.476;2023-04-26T08:26:59;3.45;;;1.67;;
54835;SDS011;43486;43.574;1.476;2023-04-26T08:29:25;2.42;;;1.30;;
54835;SDS011;43486;43.574;1.476;2023-04-26T08:31:51;3.05;;;1.50;;
54835;SDS011;43486;43.574;1.476;2023-04-26T08:34:17;4.28;;;1.35;;
54835;SDS011;43486;43.574;1.476;2023-04-26T08:36:42;2.35;;;1.55;;
54835;SDS011;43486;43.574;1.476;2023-04-26T08:39:08;2.42;;;1.60;;
54835;SDS011;43486;43.574;1.476;2023-04-26T08:41:34;4.68;;;1.65;;
54835;SDS011;43486;43.574;1.476;2023-04-26T08:44:01;2.05;;;1.40;;
54835;SDS011;43486;43.574;1.476;2023-04-26T08:46:30;3.33;;;1.80;;
54835;SDS011;43486;43.574;1.476;2023-04-26T08:49:17;3.95;;;1.77;;
54835;SDS011;43486;43.574;1.476;2023-04-26T08:51:51;2.20;;;1.25;;
54835;SDS011;43486;43.574;1.476;2023-04-26T08:54:18;3.38;;;1.70;;
54835;SDS011;43486;43.574;1.476;2023-04-26T08:56:44;3.97;;;1.40;;
54835;SDS011;43486;43.574;1.476;2023-04-26T08:59:11;3.15;;;1.60;;
54835;SDS011;43486;43.574;1.476;2023-04-26T09:01:40;2.63;;;1.52;;
54835;SDS011;43486;43.574;1.476;2023-04-26T09:04:06;6.60;;;2.40;;
54835;SDS011;43486;43.574;1.476;2023-04-26T09:06:32;7.03;;;1.92;;
54835;SDS011;43486;43.574;1.476;2023-04-26T09:08:58;2.85;;;1.52;;
54835;SDS011;43486;43.574;1.476;2023-04-26T09:11:28;4.85;;;1.65;;
54835;SDS011;43486;43.574;1.476;2023-04-26T09:13:54;6.78;;;1.77;;
54835;SDS011;43486;43.574;1.476;2023-04-26T09:16:32;2.42;;;1.20;;
54835;SDS011;43486;43.574;1.476;2023-04-26T09:18:58;3.10;;;1.00;;
54835;SDS011;43486;43.574;1.476;2023-04-26T09:21:24;3.65;;;1.90;;
54835;SDS011;43486;43.574;1.476;2023-04-26T09:23:56;3.03;;;1.75;;
54835;SDS011;43486;43.574;1.476;2023-04-26T09:26:28;4.03;;;1.77;;
54835;SDS011;43486;43.574;1.476;2023-04-26T09:31:43;6.25;;;2.05;;
54835;SDS011;43486;43.574;1.476;2023-04-26T09:34:10;5.45;;;1.58;;
54835;SDS011;43486;43.574;1.476;2023-04-26T09:36:52;2.92;;;1.50;;
54835;SDS011;43486;43.574;1.476;2023-04-26T09:41:56;1.88;;;1.35;;
54835;SDS011;43486;43.574;1.476;2023-04-26T09:44:23;3.72;;;1.65;;
54835;SDS011;43486;43.574;1.476;2023-04-26T09:46:58;4.38;;;2.33;;
54835;SDS011;43486;43.574;1.476;2023-04-26T09:49:30;2.97;;;2.30;;
54835;SDS011;43486;43.574;1.476;2023-04-26T09:52:16;2.90;;;1.40;;
54835;SDS011;43486;43.574;1.476;2023-04-26T09:54:46;2.20;;;1.52;;
54835;SDS011;43486;43.574;1.476;2023-04-26T09:57:14;3.20;;;1.65;;
54835;SDS011;43486;43.574;1.476;2023-04-26T10:04:50;2.00;;;1.52;;
54835;SDS011;43486;43.574;1.476;2023-04-26T10:07:18;4.35;;;1.40;;
54835;SDS011;43486;43.574;1.476;2023-04-26T10:09:48;3.10;;;1.63;;
54835;SDS011;43486;43.574;1.476;2023-04-26T10:12:14;1.67;;;1.05;;
54835;SDS011;43486;43.574;1.476;2023-04-26T10:14:41;4.72;;;2.20;;
54835;SDS011;43486;43.574;1.476;2023-04-26T10:17:08;1.90;;;1.27;;
54835;SDS011;43486;43.574;1.476;2023-04-26T10:19:36;4.68;;;2.05;;
54835;SDS011;43486;43.574;1.476;2023-04-26T10:22:06;1.52;;;1.08;;
54835;SDS011;43486;43.574;1.476;2023-04-26T10:24:36;2.30;;;1.35;;
54835;SDS011;43486;43.574;1.476;2023-04-26T10:27:01;1.35;;;1.25;;
54835;SDS011;43486;43.574;1.476;2023-04-26T10:30:13;4.03;;;1.83;;
54835;SDS011;43486;43.574;1.476;2023-04-26T10:32:22;2.90;;;1.65;;
54835;SDS011;43486;43.574;1.476;2023-04-26T10:40:30;12.60;;;3.28;;
54835;SDS011;43486;43.574;1.476;2023-04-26T10:45:38;11.60;;;4.30;;
54835;SDS011;43486;43.574;1.476;2023-04-26T10:56:10;10.45;;;3.90;;
54835;SDS011;43486;43.574;1.476;2023-04-26T10:58:47;9.35;;;3.00;;
54835;SDS011;43486;43.574;1.476;2023-04-26T11:03:41;5.90;;;3.10;;
54835;SDS011;43486;43.574;1.476;2023-04-26T11:06:08;10.35;;;3.33;;
54835;SDS011;43486;43.574;1.476;2023-04-26T11:08:34;9.77;;;4.07;;
54835;SDS011;43486;43.574;1.476;2023-04-26T11:13:26;16.17;;;3.05;;
54835;SDS011;43486;43.574;1.476;2023-04-26T11:16:08;13.10;;;2.67;;
54835;SDS011;43486;43.574;1.476;2023-04-26T11:18:35;6.72;;;2.78;;
54835;SDS011;43486;43.574;1.476;2023-04-26T11:21:01;4.97;;;2.75;;
54835;SDS011;43486;43.574;1.476;2023-04-26T11:23:28;6.07;;;2.40;;
54835;SDS011;43486;43.574;1.476;2023-04-26T11:25:57;5.28;;;2.67;;
54835;SDS011;43486;43.574;1.476;2023-04-26T11:28:40;4.80;;;3.03;;
54835;SDS011;43486;43.574;1.476;2023-04-26T11:31:08;5.35;;;3.05;;
54835;SDS011;43486;43.574;1.476;2023-04-26T11:33:33;6.18;;;2.65;;
54835;SDS011;43486;43.574;1.476;2023-04-26T11:35:59;5.50;;;2.90;;
54835;SDS011;43486;43.574;1.476;2023-04-26T11:38:24;9.82;;;4.50;;
54835;SDS011;43486;43.574;1.476;2023-04-26T11:43:37;9.15;;;3.65;;
54835;SDS011;43486;43.574;1.476;2023-04-26T11:46:04;4.90;;;2.60;;
54835;SDS011;43486;43.574;1.476;2023-04-26T11:48:30;4.60;;;2.90;;
54835;SDS011;43486;43.574;1.476;2023-04-26T11:50:57;6.40;;;2.55;;
54835;SDS011;43486;43.574;1.476;2023-04-26T11:53:23;5.20;;;2.65;;
54835;SDS011;43486;43.574;1.476;2023-04-26T11:55:49;4.80;;;2.67;;
54835;SDS011;43486;43.574;1.476;2023-04-26T11:58:16;6.18;;;2.67;;
54835;SDS011;43486;43.574;1.476;2023-04-26T12:00:54;9.98;;;3.03;;
54835;SDS011;43486;43.574;1.476;2023-04-26T12:03:23;6.15;;;2.45;;
54835;SDS011;43486;43.574;1.476;2023-04-26T12:05:53;5.88;;;2.45;;
54835;SDS011;43486;43.574;1.476;2023-04-26T12:08:22;5.57;;;2.88;;
54835;SDS011;43486;43.574;1.476;2023-04-26T12:10:48;5.53;;;2.00;;
54835;SDS011;43486;43.574;1.476;2023-04-26T12:13:14;4.72;;;2.30;;
54835;SDS011;43486;43.574;1.476;2023-04-26T12:15:39;4.22;;;2.03;;
54835;SDS011;43486;43.574;1.476;2023-04-26T12:18:05;6.15;;;2.40;;
54835;SDS011;43486;43.574;1.476;2023-04-26T12:20:35;6.28;;;1.95;;
54835;SDS011;43486;43.574;1.476;2023-04-26T12:23:03;3.63;;;1.77;;
54835;SDS011;43486;43.574;1.476;2023-04-26T12:25:30;4.07;;;2.05;;
54835;SDS011;43486;43.574;1.476;2023-04-26T12:27:57;2.58;;;1.60;;
54835;SDS011;43486;43.574;1.476;2023-04-26T12:30:24;4.88;;;2.35;;
54835;SDS011;43486;43.574;1.476;2023-04-26T12:32:50;5.18;;;2.22;;
54835;SDS011;43486;43.574;1.476;2023-04-26T12:35:16;4.18;;;1.95;;
54835;SDS011;43486;43.574;1.476;2023-04-26T12:37:41;8.68;;;2.72;;
54835;SDS011;43486;43.574;1.476;2023-04-26T12:40:07;3.22;;;2.10;;
54835;SDS011;43486;43.574;1.476;2023-04-26T12:42:33;5.60;;;1.90;;
54835;SDS011;43486;43.574;1.476;2023-04-26T12:44:59;4.63;;;1.73;;
54835;SDS011;43486;43.574;1.476;2023-04-26T12:47:24;6.63;;;1.75;;
54835;SDS011;43486;43.574;1.476;2023-04-26T12:49:50;3.75;;;1.92;;
54835;SDS011;43486;43.574;1.476;2023-04-26T12:52:16;6.90;;;1.85;;
54835;SDS011;43486;43.574;1.476;2023-04-26T12:54:41;5.10;;;1.60;;
54835;SDS011;43486;43.574;1.476;2023-04-26T12:57:08;6.53;;;1.50;;
54835;SDS011;43486;43.574;1.476;2023-04-26T12:59:33;1.95;;;1.30;;
54835;SDS011;43486;43.574;1.476;2023-04-26T13:01:59;4.40;;;2.28;;
54835;SDS011;43486;43.574;1.476;2023-04-26T13:04:24;6.55;;;2.28;;
54835;SDS011;43486;43.574;1.476;2023-04-26T13:06:50;3.85;;;1.80;;
54835;SDS011;43486;43.574;1.476;2023-04-26T13:09:15;3.42;;;1.73;;
54835;SDS011;43486;43.574;1.476;2023-04-26T13:11:41;3.65;;;1.92;;
54835;SDS011;43486;43.574;1.476;2023-04-26T13:14:07;3.08;;;1.67;;
54835;SDS011;43486;43.574;1.476;2023-04-26T13:16:33;6.63;;;1.73;;
54835;SDS011;43486;43.574;1.476;2023-04-26T13:18:58;3.65;;;1.58;;
54835;SDS011;43486;43.574;1.476;2023-04-26T13:21:23;4.28;;;2.30;;
54835;SDS011;43486;43.574;1.476;2023-04-26T13:23:49;6.38;;;2.10;;
54835;SDS011;43486;43.574;1.476;2023-04-26T13:26:14;2.40;;;1.40;;
54835;SDS011;43486;43.574;1.476;2023-04-26T13:28:42;2.17;;;1.52;;
54835;SDS011;43486;43.574;1.476;2023-04-26T13:31:07;2.40;;;1.40;;
54835;SDS011;43486;43.574;1.476;2023-04-26T13:33:32;5.10;;;1.42;;
54835;SDS011;43486;43.574;1.476;2023-04-26T13:35:58;2.95;;;1.23;;
54835;SDS011;43486;43.574;1.476;2023-04-26T13:38:24;8.02;;;1.98;;
54835;SDS011;43486;43.574;1.476;2023-04-26T13:40:49;5.10;;;1.27;;
54835;SDS011;43486;43.574;1.476;2023-04-26T13:43:15;7.53;;;1.88;;
54835;SDS011;43486;43.574;1.476;2023-04-26T13:45:41;4.32;;;1.60;;
54835;SDS011;43486;43.574;1.476;2023-04-26T13:48:06;2.92;;;1.30;;
54835;SDS011;43486;43.574;1.476;2023-04-26T13:50:32;7.55;;;1.98;;
54835;SDS011;43486;43.574;1.476;2023-04-26T13:53:00;3.53;;;1.33;;
54835;SDS011;43486;43.574;1.476;2023-04-26T13:55:25;9.23;;;1.73;;
54835;SDS011;43486;43.574;1.476;2023-04-26T13:57:51;11.43;;;1.92;;
54835;SDS011;43486;43.574;1.476;2023-04-26T14:00:16;3.13;;;1.42;;
54835;SDS011;43486;43.574;1.476;2023-04-26T14:02:42;3.85;;;1.95;;
54835;SDS011;43486;43.574;1.476;2023-04-26T14:05:08;5.55;;;1.35;;
54835;SDS011;43486;43.574;1.476;2023-04-26T14:07:33;2.20;;;1.40;;
54835;SDS011;43486;43.574;1.476;2023-04-26T14:09:59;3.95;;;1.67;;
54835;SDS011;43486;43.574;1.476;2023-04-26T14:12:24;3.75;;;1.67;;
54835;SDS011;43486;43.574;1.476;2023-04-26T14:14:50;3.97;;;1.60;;
54835;SDS011;43486;43.574;1.476;2023-04-26T14:17:15;3.05;;;1.67;;
54835;SDS011;43486;43.574;1.476;2023-04-26T14:19:41;2.17;;;1.45;;
54835;SDS011;43486;43.574;1.476;2023-04-26T14:22:07;2.55;;;1.33;;
54835;SDS011;43486;43.574;1.476;2023-04-26T14:24:36;3.92;;;1.13;;
54835;SDS011;43486;43.574;1.476;2023-04-26T14:27:02;5.10;;;1.58;;
54835;SDS011;43486;43.574;1.476;2023-04-26T14:29:27;3.75;;;1.45;;
54835;SDS011;43486;43.574;1.476;2023-04-26T14:31:53;2.20;;;1.50;;
54835;SDS011;43486;43.574;1.476;2023-04-26T14:34:18;2.45;;;1.23;;
54835;SDS011;43486;43.574;1.476;2023-04-26T14:36:46;2.78;;;1.48;;
54835;SDS011;43486;43.574;1.476;2023-04-26T14:39:11;3.47;;;1.42;;
54835;SDS011;43486;43.574;1.476;2023-04-26T14:41:36;2.15;;;1.17;;
54835;SDS011;43486;43.574;1.476;2023-04-26T14:44:02;2.53;;;1.55;;
54835;SDS011;43486;43.574;1.476;2023-04-26T14:46:27;2.08;;;1.30;;
54835;SDS011;43486;43.574;1.476;2023-04-26T14:48:53;2.95;;;1.30;;
54835;SDS011;43486;43.574;1.476;2023-04-26T14:51:19;4.32;;;1.35;;
54835;SDS011;43486;43.574;1.476;2023-04-26T14:53:44;5.90;;;1.10;;
54835;SDS011;43486;43.574;1.476;2023-04-26T14:56:10;4.20;;;1.98;;
54835;SDS011;43486;43.574;1.476;2023-04-26T14:58:35;2.50;;;1.40;;
54835;SDS011;43486;43.574;1.476;2023-04-26T15:01:00;1.67;;;1.10;;
54835;SDS011;43486;43.574;1.476;2023-04-26T15:03:26;2.85;;;1.52;;
54835;SDS011;43486;43.574;1.476;2023-04-26T15:05:52;4.03;;;1.20;;
54835;SDS011;43486;43.574;1.476;2023-04-26T15:08:17;2.40;;;1.50;;
54835;SDS011;43486;43.574;1.476;2023-04-26T15:10:44;2.17;;;1.20;;
54835;SDS011;43486;43.574;1.476;2023-04-26T15:13:09;4.82;;;1.60;;
54835;SDS011;43486;43.574;1.476;2023-04-26T15:15:35;2.92;;;1.85;;
54835;SDS011;43486;43.574;1.476;2023-04-26T15:18:00;2.28;;;1.23;;